createdAt,value
2018-07-23T00:00:03.715Z,98099.61
2018-07-23T00:02:32.169Z,98097.06
2018-07-23T00:05:00.624Z,98098.59
2018-07-23T00:07:29.089Z,98097.41
2018-07-23T00:09:57.548Z,98098.39
2018-07-23T00:12:26.019Z,98094.54
2018-07-23T00:14:54.942Z,98104.89
2018-07-23T00:17:23.401Z,98098.39
2018-07-23T00:19:51.904Z,98087.37
2018-07-23T00:22:20.339Z,98093.91
2018-07-23T00:24:49.140Z,98100.52
2018-07-23T00:27:17.819Z,98097.55
2018-07-23T00:29:46.258Z,98095.56
2018-07-23T00:32:14.740Z,98097.60
2018-07-23T00:34:43.175Z,98094.94
2018-07-23T00:37:11.579Z,98089.88
2018-07-23T00:39:39.999Z,98097.86
2018-07-23T00:42:09.080Z,98095.24
2018-07-23T00:44:37.792Z,98096.58
2018-07-23T00:47:06.915Z,98089.37
2018-07-23T00:49:35.912Z,98087.36
2018-07-23T00:52:04.429Z,98086.90
2018-07-23T00:54:32.898Z,98089.05
2018-07-23T00:57:01.602Z,98079.87
2018-07-23T00:59:30.059Z,98086.55
2018-07-23T01:03:06.976Z,98085.88
2018-07-23T01:05:38.086Z,98082.23
2018-07-23T01:08:07.261Z,98089.53
2018-07-23T01:10:35.704Z,98082.24
2018-07-23T01:13:04.237Z,98083.88
2018-07-23T01:15:32.739Z,98079.55
2018-07-23T01:18:01.312Z,98080.75
2018-07-23T01:20:29.804Z,98080.06
2018-07-23T01:22:58.268Z,98080.23
2018-07-23T01:25:26.724Z,98087.06
2018-07-23T01:27:55.206Z,98084.25
2018-07-23T01:30:23.675Z,98086.63
2018-07-23T01:32:52.123Z,98082.77
2018-07-23T01:35:20.520Z,98079.95
2018-07-23T01:37:49.283Z,98081.94
2018-07-23T01:40:17.684Z,98084.96
2018-07-23T01:42:46.115Z,98084.56
2018-07-23T01:45:14.552Z,98088.41
2018-07-23T01:47:42.995Z,98079.63
2018-07-23T01:50:11.605Z,98083.94
2018-07-23T01:52:40.041Z,98084.27
2018-07-23T01:55:08.522Z,98078.63
2018-07-23T01:57:36.928Z,98083.77
2018-07-23T02:00:06.116Z,98080.89
2018-07-23T02:02:34.647Z,98091.28
2018-07-23T02:05:03.127Z,98081.56
2018-07-23T02:07:31.711Z,98077.59
2018-07-23T02:10:00.383Z,98085.70
2018-07-23T02:12:29.073Z,98078.19
2018-07-23T02:14:57.494Z,98078.38
2018-07-23T02:17:26.019Z,98082.21
2018-07-23T02:19:55.434Z,98080.93
2018-07-23T02:22:23.880Z,98078.66
2018-07-23T02:24:52.361Z,98084.96
2018-07-23T02:27:20.901Z,98079.89
2018-07-23T02:29:49.352Z,98077.22
2018-07-23T02:32:17.970Z,98084.78
2018-07-23T02:34:46.453Z,98080.68
2018-07-23T02:37:14.870Z,98077.88
2018-07-23T02:39:43.828Z,98071.19
2018-07-23T02:42:12.311Z,98082.17
2018-07-23T02:44:40.795Z,98081.88
2018-07-23T02:47:10.087Z,98081.20
2018-07-23T02:49:39.220Z,98083.31
2018-07-23T02:52:08.181Z,98080.31
2018-07-23T02:54:37.019Z,98081.86
2018-07-23T02:57:05.466Z,98054.76
2018-07-23T02:59:34.207Z,98084.56
2018-07-23T03:02:02.862Z,98084.50
2018-07-23T03:04:31.360Z,98083.52
2018-07-23T03:06:59.830Z,98084.90
2018-07-23T03:09:28.266Z,98083.09
2018-07-23T03:11:56.747Z,98092.53
2018-07-23T03:14:25.211Z,98086.16
2018-07-23T03:16:53.872Z,98079.37
2018-07-23T03:19:22.276Z,98079.91
2018-07-23T03:21:50.780Z,98087.20
2018-07-23T03:24:19.215Z,98087.37
2018-07-23T03:26:47.659Z,98087.52
2018-07-23T03:29:16.124Z,98094.87
2018-07-23T03:31:44.715Z,98100.02
2018-07-23T03:34:13.149Z,98102.10
2018-07-23T03:36:41.607Z,98102.94
2018-07-23T03:39:11.282Z,98104.11
2018-07-23T03:41:40.118Z,98108.73
2018-07-23T03:44:08.600Z,98103.35
2018-07-23T03:46:37.159Z,98100.72
2018-07-23T03:49:06.064Z,98107.00
2018-07-23T03:51:34.527Z,98106.76
2018-07-23T03:54:03.175Z,98110.27
2018-07-23T03:56:31.664Z,98104.72
2018-07-23T03:59:00.092Z,98110.91
2018-07-23T04:01:28.576Z,98113.40
2018-07-23T04:03:57.280Z,98115.16
2018-07-23T04:06:25.995Z,98114.91
2018-07-23T04:08:54.466Z,98116.83
2018-07-23T04:11:22.971Z,98118.65
2018-07-23T04:13:51.427Z,98120.30
2018-07-23T04:16:20.115Z,98121.98
2018-07-23T04:18:48.560Z,98128.20
2018-07-23T04:21:16.963Z,98128.97
2018-07-23T04:23:45.426Z,98126.15
2018-07-23T04:26:13.854Z,98110.62
2018-07-23T04:28:42.338Z,98133.98
2018-07-23T04:31:10.808Z,98133.78
2018-07-23T04:33:39.279Z,98138.77
2018-07-23T04:36:07.715Z,98140.41
2018-07-23T04:38:36.234Z,98148.72
2018-07-23T04:41:04.699Z,98148.72
2018-07-23T04:43:33.166Z,98145.42
2018-07-23T04:46:01.623Z,98149.19
2018-07-23T04:48:30.160Z,98149.45
2018-07-23T04:50:58.655Z,98155.03
2018-07-23T04:53:27.479Z,98155.34
2018-07-23T04:55:55.895Z,98158.71
2018-07-23T04:58:24.467Z,98161.52
2018-07-23T05:00:53.161Z,98167.97
2018-07-23T05:03:21.610Z,98163.97
2018-07-23T05:05:50.047Z,98163.69
2018-07-23T05:08:18.832Z,98174.33
2018-07-23T05:10:47.274Z,98176.81
2018-07-23T05:13:15.715Z,98178.11
2018-07-23T05:15:44.170Z,98180.11
2018-07-23T05:18:12.688Z,98176.29
2018-07-23T05:20:41.160Z,98178.42
2018-07-23T05:23:09.656Z,98180.73
2018-07-23T05:25:38.115Z,98184.05
2018-07-23T05:28:06.937Z,98187.27
2018-07-23T05:30:35.388Z,98183.44
2018-07-23T05:33:03.864Z,98185.47
2018-07-23T05:35:32.529Z,98185.13
2018-07-23T05:38:00.975Z,98182.22
2018-07-23T05:40:29.423Z,98190.64
2018-07-23T05:42:57.934Z,98188.70
2018-07-23T05:45:26.422Z,98189.73
2018-07-23T05:47:55.196Z,98183.45
2018-07-23T05:50:23.865Z,98187.00
2018-07-23T05:52:52.304Z,98192.99
2018-07-23T05:55:20.779Z,98193.06
2018-07-23T05:57:49.240Z,98191.30
2018-07-23T06:00:17.731Z,98193.17
2018-07-23T06:02:46.147Z,98197.20
2018-07-23T06:05:14.608Z,98194.84
2018-07-23T06:07:43.348Z,98204.20
2018-07-23T06:10:11.785Z,98190.33
2018-07-23T06:12:40.264Z,98209.66
2018-07-23T06:15:09.560Z,98206.02
2018-07-23T06:17:38.076Z,98205.98
2018-07-23T06:20:08.027Z,98204.67
2018-07-23T06:22:36.695Z,98206.35
2018-07-23T06:25:05.522Z,98202.66
2018-07-23T06:27:33.957Z,98208.70
2018-07-23T06:30:02.474Z,98211.52
2018-07-23T06:32:30.925Z,98204.68
2018-07-23T06:34:59.697Z,98200.88
2018-07-23T06:37:28.376Z,98205.52
2018-07-23T06:39:56.819Z,98208.16
2018-07-23T06:42:25.262Z,98205.03
2018-07-23T06:44:53.739Z,98215.82
2018-07-23T06:47:22.197Z,98207.89
2018-07-23T06:49:50.659Z,98222.13
2018-07-23T06:52:19.097Z,98224.39
2018-07-23T06:54:47.572Z,98225.54
2018-07-23T06:57:16.238Z,98226.61
2018-07-23T06:59:44.711Z,98222.86
2018-07-23T07:02:13.186Z,98233.25
2018-07-23T07:04:41.672Z,98235.00
2018-07-23T07:07:10.397Z,98229.66
2018-07-23T07:09:38.997Z,98232.93
2018-07-23T07:12:07.460Z,98234.97
2018-07-23T07:14:35.864Z,98228.86
2018-07-23T07:17:04.595Z,98226.72
2018-07-23T07:20:35.612Z,98223.54
2018-07-23T07:23:04.129Z,98226.67
2018-07-23T07:25:33.159Z,98225.58
2018-07-23T07:28:02.391Z,98218.56
2018-07-23T07:30:31.946Z,98220.81
2018-07-23T07:33:00.642Z,98226.23
2018-07-23T07:35:32.098Z,98216.46
2018-07-23T07:38:00.554Z,98219.45
2018-07-23T07:40:28.948Z,98222.34
2018-07-23T07:42:57.394Z,98214.70
2018-07-23T07:45:25.862Z,98219.16
2018-07-23T07:47:54.351Z,98210.42
2018-07-23T07:50:22.810Z,98215.90
2018-07-23T07:52:51.243Z,98209.40
2018-07-23T07:55:19.708Z,98213.36
2018-07-23T07:57:48.436Z,98215.78
2018-07-23T08:00:16.836Z,98215.23
2018-07-23T08:02:45.552Z,98220.75
2018-07-23T08:05:14.200Z,98216.71
2018-07-23T08:07:42.641Z,98216.83
2018-07-23T08:10:11.071Z,98225.98
2018-07-23T08:12:39.567Z,98222.08
2018-07-23T08:15:08.927Z,98216.46
2018-07-23T08:17:37.637Z,98219.63
2018-07-23T08:20:36.844Z,98214.77
2018-07-23T08:23:05.330Z,98214.89
2018-07-23T08:25:33.828Z,98225.31
2018-07-23T08:28:02.504Z,98230.89
2018-07-23T08:30:30.991Z,98222.97
2018-07-23T08:32:59.515Z,98232.20
2018-07-23T08:35:28.263Z,98225.30
2018-07-23T08:37:56.710Z,98225.66
2018-07-23T08:40:25.164Z,98229.02
2018-07-23T08:42:53.688Z,98237.05
2018-07-23T08:45:22.200Z,98226.44
2018-07-23T08:47:50.706Z,98230.09
2018-07-23T08:50:19.460Z,98225.99
2018-07-23T08:52:47.956Z,98222.05
2018-07-23T08:55:16.535Z,98229.95
2018-07-23T08:57:45.007Z,98235.03
2018-07-23T09:00:13.487Z,98232.70
2018-07-23T09:02:41.923Z,98229.21
2018-07-23T09:05:10.382Z,98236.82
2018-07-23T09:07:38.859Z,98229.14
2018-07-23T09:10:07.307Z,98231.67
2018-07-23T09:12:35.878Z,98232.66
2018-07-23T09:15:04.832Z,98225.22
2018-07-23T09:17:33.291Z,98230.94
2018-07-23T09:20:02.252Z,98227.73
2018-07-23T09:22:30.694Z,98231.17
2018-07-23T09:24:59.225Z,98230.13
2018-07-23T09:27:27.990Z,98226.82
2018-07-23T09:29:56.482Z,98224.45
2018-07-23T09:32:25.148Z,98226.89
2018-07-23T09:34:53.588Z,98229.59
2018-07-23T09:37:22.308Z,98223.90
2018-07-23T09:39:51.676Z,98223.84
2018-07-23T09:42:20.217Z,98218.09
2018-07-23T09:44:48.746Z,98212.62
2018-07-23T09:47:17.734Z,98214.77
2018-07-23T09:49:46.272Z,98216.64
2018-07-23T09:52:14.851Z,98208.64
2018-07-23T09:54:43.497Z,98219.73
2018-07-23T09:57:11.963Z,98211.34
2018-07-23T09:59:40.713Z,98214.56
2018-07-23T10:02:09.173Z,98219.43
2018-07-23T10:04:37.683Z,98211.92
2018-07-23T10:07:06.563Z,98211.77
2018-07-23T10:09:35.063Z,98206.07
2018-07-23T10:12:03.552Z,98206.78
2018-07-23T10:14:32.164Z,98210.21
2018-07-23T10:17:00.827Z,98213.73
2018-07-23T10:19:29.273Z,98217.53
2018-07-23T10:21:57.963Z,98215.90
2018-07-23T10:24:26.399Z,98206.92
2018-07-23T10:26:54.928Z,98204.30
2018-07-23T10:29:23.523Z,98209.67
2018-07-23T10:31:52.040Z,98201.59
2018-07-23T10:34:20.734Z,98211.34
2018-07-23T10:36:49.404Z,98201.19
2018-07-23T10:39:17.885Z,98188.63
2018-07-23T10:41:46.483Z,98185.92
2018-07-23T10:44:14.912Z,98179.13
2018-07-23T10:46:43.379Z,98191.20
2018-07-23T10:49:11.929Z,98179.95
2018-07-23T10:51:40.384Z,98190.70
2018-07-23T10:54:09.020Z,98189.46
2018-07-23T10:56:37.485Z,98190.94
2018-07-23T10:59:06.076Z,98182.71
2018-07-23T11:01:34.531Z,98178.81
2018-07-23T11:04:02.996Z,98181.86
2018-07-23T11:06:31.457Z,98175.41
2018-07-23T11:09:00.877Z,98182.62
2018-07-23T11:11:29.358Z,98174.02
2018-07-23T11:13:57.759Z,98168.52
2018-07-23T11:16:26.296Z,98173.03
2018-07-23T11:18:54.785Z,98170.47
2018-07-23T11:21:23.417Z,98167.94
2018-07-23T11:23:51.954Z,98178.82
2018-07-23T11:26:20.442Z,98170.38
2018-07-23T11:28:48.915Z,98171.30
2018-07-23T11:31:17.397Z,98172.53
2018-07-23T11:33:46.250Z,98095.94
2018-07-23T11:36:14.730Z,98180.95
2018-07-23T11:38:43.212Z,98175.59
2018-07-23T11:41:11.726Z,98173.27
2018-07-23T11:43:40.215Z,98169.06
2018-07-23T11:46:08.722Z,98162.63
2018-07-23T11:48:37.391Z,98157.50
2018-07-23T11:51:05.879Z,98160.58
2018-07-23T11:53:34.439Z,98161.67
2018-07-23T11:56:02.762Z,98157.88
2018-07-23T11:58:31.539Z,98151.41
2018-07-23T12:00:59.995Z,98147.17
2018-07-23T12:03:28.427Z,98155.41
2018-07-23T12:05:56.977Z,98149.02
2018-07-23T12:08:25.446Z,98155.31
2018-07-23T12:10:53.871Z,98158.23
2018-07-23T12:13:22.772Z,98159.71
2018-07-23T12:15:51.194Z,98154.14
2018-07-23T12:18:19.821Z,98149.69
2018-07-23T12:20:48.508Z,98143.17
2018-07-23T12:23:16.996Z,98142.20
2018-07-23T12:25:45.568Z,98148.21
2018-07-23T12:28:14.239Z,98146.48
2018-07-23T12:30:42.684Z,98138.39
2018-07-23T12:33:11.313Z,98134.77
2018-07-23T12:35:40.117Z,98141.34
2018-07-23T12:38:08.647Z,98145.46
2018-07-23T12:40:37.651Z,98139.50
2018-07-23T12:43:06.169Z,98137.85
2018-07-23T12:45:35.451Z,98124.92
2018-07-23T12:48:04.081Z,98124.23
2018-07-23T12:50:32.781Z,98132.53
2018-07-23T12:53:01.271Z,98124.19
2018-07-23T12:55:30.072Z,98116.77
2018-07-23T12:57:58.834Z,98105.45
2018-07-23T13:00:27.259Z,98114.92
2018-07-23T13:02:56.468Z,98117.89
2018-07-23T13:05:26.745Z,98122.92
2018-07-23T13:07:56.018Z,98118.56
2018-07-23T13:10:24.748Z,98137.41
2018-07-23T13:12:53.426Z,98123.89
2018-07-23T13:15:21.935Z,98134.97
2018-07-23T13:17:50.467Z,98122.72
2018-07-23T13:20:18.990Z,98125.13
2018-07-23T13:22:47.924Z,98124.55
2018-07-23T13:25:16.443Z,98118.17
2018-07-23T13:27:45.084Z,98126.06
2018-07-23T13:30:13.474Z,98127.13
2018-07-23T13:32:42.599Z,98132.92
2018-07-23T13:35:11.324Z,98127.73
2018-07-23T13:37:39.767Z,98115.66
2018-07-23T13:40:08.391Z,98127.70
2018-07-23T13:42:36.816Z,98136.22
2018-07-23T13:45:05.808Z,98128.53
2018-07-23T13:47:34.456Z,98125.94
2018-07-23T13:50:03.400Z,98128.02
2018-07-23T13:52:31.842Z,98142.85
2018-07-23T13:55:00.319Z,98149.59
2018-07-23T13:57:29.042Z,98150.77
2018-07-23T13:59:57.496Z,98132.19
2018-07-23T14:02:25.942Z,98150.27
2018-07-23T14:04:54.971Z,98145.77
2018-07-23T14:07:23.487Z,98159.05
2018-07-23T14:09:52.211Z,98149.33
2018-07-23T14:12:20.627Z,98161.36
2018-07-23T14:14:49.072Z,98144.34
2018-07-23T14:17:17.687Z,98137.30
2018-07-23T14:19:46.339Z,98136.49
2018-07-23T14:22:15.049Z,98140.27
2018-07-23T14:24:43.571Z,98141.63
2018-07-23T14:27:12.089Z,98139.67
2018-07-23T14:29:40.753Z,98135.94
2018-07-23T14:32:09.195Z,98145.61
2018-07-23T14:34:37.661Z,98134.05
2018-07-23T14:37:06.554Z,98138.05
2018-07-23T14:39:35.081Z,98131.66
2018-07-23T14:42:04.585Z,98134.42
2018-07-23T14:44:33.070Z,98134.27
2018-07-23T14:47:01.763Z,98123.68
2018-07-23T14:49:30.247Z,98115.73
2018-07-23T14:51:58.852Z,98127.56
2018-07-23T14:54:27.315Z,98160.20
2018-07-23T14:56:55.779Z,98130.95
2018-07-23T14:59:24.403Z,98141.56
2018-07-23T15:01:52.876Z,98137.11
2018-07-23T15:04:21.363Z,98162.63
2018-07-23T15:06:49.844Z,98151.38
2018-07-23T15:09:18.356Z,98140.80
2018-07-23T15:11:46.880Z,98124.84
2018-07-23T15:14:15.327Z,98127.36
2018-07-23T15:16:43.744Z,98121.14
2018-07-23T15:19:12.287Z,98130.24
2018-07-23T15:21:40.746Z,98145.00
2018-07-23T15:24:09.336Z,98155.09
2018-07-23T15:26:37.924Z,98151.00
2018-07-23T15:29:06.577Z,98150.24
2018-07-23T15:31:35.050Z,98146.63
2018-07-23T15:34:03.516Z,98138.34
2018-07-23T15:36:31.992Z,98137.81
2018-07-23T15:39:00.446Z,98143.77
2018-07-23T15:41:28.940Z,98148.20
2018-07-23T15:43:57.556Z,98150.77
2018-07-23T15:46:25.995Z,98160.14
2018-07-23T15:48:54.404Z,98152.28
2018-07-23T15:53:58.748Z,98154.77
2018-07-23T15:56:27.234Z,98155.72
2018-07-23T15:58:55.998Z,98150.49
2018-07-23T16:01:24.436Z,98143.44
2018-07-23T16:03:53.016Z,98156.37
2018-07-23T16:06:21.657Z,98145.38
2018-07-23T16:08:50.086Z,98146.93
2018-07-23T16:11:18.717Z,98155.41
2018-07-23T16:13:47.191Z,98155.14
2018-07-23T16:16:15.635Z,98155.64
2018-07-23T16:18:44.072Z,98150.30
2018-07-23T16:21:12.574Z,98151.27
2018-07-23T16:23:41.271Z,98157.13
2018-07-23T16:26:09.797Z,98155.27
2018-07-23T16:28:38.316Z,98152.09
2018-07-23T16:31:07.302Z,98154.00
2018-07-23T16:33:35.856Z,98152.49
2018-07-23T16:36:04.427Z,98149.12
2018-07-23T16:38:32.914Z,98149.08
2018-07-23T16:41:01.375Z,98153.81
2018-07-23T16:43:30.125Z,98147.98
2018-07-23T16:45:58.853Z,98149.80
2018-07-23T16:48:27.572Z,98138.52
2018-07-23T16:50:56.041Z,98141.53
2018-07-23T16:53:24.680Z,98148.19
2018-07-23T16:55:53.147Z,98152.33
2018-07-23T16:58:21.664Z,98162.45
2018-07-23T17:00:50.204Z,98171.27
2018-07-23T17:03:18.745Z,98157.72
2018-07-23T17:05:47.246Z,98162.41
2018-07-23T17:08:16.493Z,98163.01
2018-07-23T17:10:45.334Z,98164.37
2018-07-23T17:13:14.155Z,98168.20
2018-07-23T17:15:42.806Z,98167.78
2018-07-23T17:18:11.702Z,98175.51
2018-07-23T17:20:39.997Z,98175.18
2018-07-23T17:23:08.454Z,98169.05
2018-07-23T17:25:36.868Z,98176.98
2018-07-23T17:28:05.605Z,98172.58
2018-07-23T17:30:34.099Z,98178.42
2018-07-23T17:33:02.616Z,98183.77
2018-07-23T17:35:31.309Z,98189.22
2018-07-23T17:37:59.756Z,98197.63
2018-07-23T17:40:28.161Z,98197.05
2018-07-23T17:42:56.627Z,98207.24
2018-07-23T17:45:25.090Z,98208.34
2018-07-23T17:47:53.742Z,98205.77
2018-07-23T17:50:22.315Z,98216.03
2018-07-23T17:52:50.994Z,98216.78
2018-07-23T17:55:19.849Z,98218.00
2018-07-23T17:57:48.554Z,98214.80
2018-07-23T18:00:17.005Z,98211.99
2018-07-23T18:02:45.481Z,98218.28
2018-07-23T18:05:13.963Z,98215.80
2018-07-23T18:07:42.610Z,98221.14
2018-07-23T18:10:11.232Z,98221.92
2018-07-23T18:12:39.916Z,98222.48
2018-07-23T18:15:08.562Z,98223.32
2018-07-23T18:17:37.127Z,98223.11
2018-07-23T18:20:05.799Z,98216.13
2018-07-23T18:22:34.228Z,98220.73
2018-07-23T18:25:03.204Z,98214.33
2018-07-23T18:27:31.690Z,98218.76
2018-07-23T18:30:00.367Z,98216.03
2018-07-23T18:32:29.384Z,98219.09
2018-07-23T18:34:57.869Z,98221.94
2018-07-23T18:37:26.344Z,98226.72
2018-07-23T18:39:54.815Z,98230.89
2018-07-23T18:42:23.242Z,98236.54
2018-07-23T18:44:52.035Z,98241.14
2018-07-23T18:47:20.691Z,98233.08
2018-07-23T18:49:54.191Z,98237.37
2018-07-23T18:52:23.087Z,98245.62
2018-07-23T18:54:53.087Z,98250.16
2018-07-23T18:57:21.557Z,98251.88
2018-07-23T18:59:50.064Z,98254.18
2018-07-23T19:02:19.391Z,98255.31
2018-07-23T19:04:48.134Z,98263.87
2018-07-23T19:07:16.659Z,98268.73
2018-07-23T19:09:45.150Z,98270.16
2018-07-23T19:12:14.119Z,98273.83
2018-07-23T19:14:42.603Z,98279.69
2018-07-23T19:17:12.956Z,98273.08
2018-07-23T19:19:41.463Z,98279.58
2018-07-23T19:22:10.177Z,98286.70
2018-07-23T19:24:38.690Z,98282.81
2018-07-23T19:27:07.199Z,98288.66
2018-07-23T19:29:35.669Z,98287.89
2018-07-23T19:32:04.412Z,98297.11
2018-07-23T19:34:33.077Z,98313.36
2018-07-23T19:37:01.804Z,98295.41
2018-07-23T19:39:30.217Z,98302.84
2018-07-23T19:41:58.714Z,98301.45
2018-07-23T19:44:27.196Z,98312.66
2018-07-23T19:46:55.848Z,98313.52
2018-07-23T19:49:24.363Z,98313.16
2018-07-23T19:51:52.930Z,98317.60
2018-07-23T19:54:21.647Z,98315.70
2018-07-23T19:56:50.106Z,98313.52
2018-07-23T19:59:18.542Z,98314.37
2018-07-23T20:01:47.058Z,98318.03
2018-07-23T20:04:18.668Z,98316.84
2018-07-23T20:06:48.481Z,98312.09
2018-07-23T20:09:17.291Z,98314.33
2018-07-23T20:11:45.783Z,98321.39
2018-07-23T20:14:14.540Z,98319.63
2018-07-23T20:16:43.025Z,98318.84
2018-07-23T20:19:11.837Z,98326.18
2018-07-23T20:21:40.796Z,98325.49
2018-07-23T20:24:09.245Z,98323.86
2018-07-23T20:26:37.683Z,98322.91
2018-07-23T20:29:06.522Z,98326.58
2018-07-23T20:31:34.971Z,98316.91
2018-07-23T20:34:03.471Z,98317.75
2018-07-23T20:36:31.947Z,98318.95
2018-07-23T20:39:00.537Z,98323.50
2018-07-23T20:41:28.993Z,98321.97
2018-07-23T20:43:57.571Z,98324.64
2018-07-23T20:46:26.263Z,98327.69
2018-07-23T20:48:54.781Z,98323.86
2018-07-23T20:51:23.208Z,98324.67
2018-07-23T20:53:51.707Z,98331.40
2018-07-23T20:56:20.146Z,98330.36
2018-07-23T20:58:48.779Z,98334.53
2018-07-23T21:01:17.632Z,98329.14
2018-07-23T21:03:46.051Z,98334.11
2018-07-23T21:06:14.541Z,98332.46
2018-07-23T21:08:43.209Z,98329.19
2018-07-23T21:11:11.688Z,98329.01
2018-07-23T21:13:40.294Z,98333.30
2018-07-23T21:16:08.758Z,98332.70
2018-07-23T21:18:37.249Z,98339.52
2018-07-23T21:21:05.732Z,98338.05
2018-07-23T21:23:34.238Z,98335.23
2018-07-23T21:26:02.680Z,98339.25
2018-07-23T21:28:31.197Z,98334.75
2018-07-23T21:30:59.655Z,98339.23
2018-07-23T21:33:28.126Z,98338.75
2018-07-23T21:35:56.803Z,98339.91
2018-07-23T21:38:25.317Z,98339.23
2018-07-23T21:40:53.768Z,98340.89
2018-07-23T21:43:22.373Z,98342.26
2018-07-23T21:45:50.781Z,98346.26
2018-07-23T21:48:19.351Z,98348.78
2018-07-23T21:50:47.851Z,98352.94
2018-07-23T21:53:16.300Z,98356.61
2018-07-23T21:55:44.883Z,98353.96
2018-07-23T21:58:13.369Z,98356.78
2018-07-23T22:00:41.878Z,98365.79
2018-07-23T22:03:10.539Z,98365.28
2018-07-23T22:05:38.996Z,98361.30
2018-07-23T22:08:07.442Z,98361.08
2018-07-23T22:10:35.878Z,98357.59
2018-07-23T22:13:04.341Z,98354.19
2018-07-23T22:15:32.808Z,98360.44
2018-07-23T22:18:01.240Z,98356.38
2018-07-23T22:20:29.753Z,98356.36
2018-07-23T22:22:58.669Z,98356.03
2018-07-23T22:25:27.207Z,98357.03
2018-07-23T22:27:55.664Z,98361.29
2018-07-23T22:30:24.185Z,98359.43
2018-07-23T22:32:52.809Z,98356.70
2018-07-23T22:35:21.310Z,98357.24
2018-07-23T22:37:49.824Z,98354.38
2018-07-23T22:40:18.435Z,98343.86
2018-07-23T22:42:46.853Z,98349.91
2018-07-23T22:45:15.259Z,98348.38
2018-07-23T22:47:43.758Z,98347.08
2018-07-23T22:50:12.211Z,98347.17
2018-07-23T22:52:41.030Z,98350.52
2018-07-23T22:55:09.516Z,98348.85
2018-07-23T22:57:37.985Z,98347.69
2018-07-23T23:00:06.778Z,98348.18
2018-07-23T23:02:35.238Z,98349.37
2018-07-23T23:05:03.692Z,98350.03
2018-07-23T23:07:32.292Z,98361.52
2018-07-23T23:10:00.701Z,98357.67
2018-07-23T23:12:29.114Z,98360.80
2018-07-23T23:14:57.567Z,98353.47
2018-07-23T23:17:26.068Z,98350.50
2018-07-23T23:19:54.512Z,98352.84
2018-07-23T23:22:23.024Z,98350.80
2018-07-23T23:24:51.486Z,98347.78
2018-07-23T23:27:19.989Z,98356.41
2018-07-23T23:29:48.671Z,98351.42
2018-07-23T23:32:17.332Z,98356.23
2018-07-23T23:34:45.832Z,98355.91
2018-07-23T23:37:14.254Z,98350.22
2018-07-23T23:39:43.044Z,98346.66
2018-07-23T23:42:11.524Z,98344.17
2018-07-23T23:44:40.311Z,98345.67
2018-07-23T23:47:08.803Z,98344.80
2018-07-23T23:49:37.368Z,98348.98
2018-07-23T23:52:05.935Z,98350.25
2018-07-23T23:54:34.675Z,98357.44
2018-07-23T23:57:03.085Z,98348.38
2018-07-23T23:59:31.510Z,98343.05
